createdAt,value
2023-04-28T00:02:09.612Z,1.40
2023-04-28T00:04:36.511Z,1.38
2023-04-28T00:07:03.860Z,1.39
2023-04-28T00:09:30.735Z,1.27
2023-04-28T00:11:57.494Z,1.33
2023-04-28T00:14:24.257Z,1.22
2023-04-28T00:16:51.158Z,1.29
2023-04-28T00:19:18.058Z,1.11
2023-04-28T00:21:44.811Z,1.09
2023-04-28T00:24:11.541Z,1.13
2023-04-28T00:26:38.273Z,1.09
2023-04-28T00:29:05.044Z,1.07
2023-04-28T00:31:31.920Z,1.15
2023-04-28T00:33:58.698Z,1.08
2023-04-28T00:36:25.634Z,1.01
2023-04-28T00:38:52.385Z,1.08
2023-04-28T00:41:19.154Z,1.02
2023-04-28T00:43:49.209Z,1.07
2023-04-28T00:46:27.436Z,1.07
2023-04-28T00:48:54.220Z,1.00
2023-04-28T00:51:21.659Z,0.97
2023-04-28T00:53:48.497Z,0.98
2023-04-28T00:56:15.255Z,0.97
2023-04-28T00:58:42.119Z,0.97
2023-04-28T01:01:09.818Z,0.98
2023-04-28T01:03:40.665Z,0.81
2023-04-28T01:06:08.518Z,0.89
2023-04-28T01:08:36.237Z,0.76
2023-04-28T01:11:03.218Z,0.73
2023-04-28T01:13:30.003Z,0.70
2023-04-28T01:15:56.816Z,0.74
2023-04-28T01:18:24.072Z,0.74
2023-04-28T01:20:50.876Z,0.74
2023-04-28T01:23:18.094Z,0.74
2023-04-28T01:25:44.954Z,0.67
2023-04-28T01:28:12.000Z,0.70
2023-04-28T01:30:38.840Z,0.70
2023-04-28T01:33:05.686Z,0.69
2023-04-28T01:35:32.473Z,0.47
2023-04-28T01:37:59.254Z,0.67
2023-04-28T01:40:26.044Z,0.67
2023-04-28T01:42:52.778Z,0.63
2023-04-28T01:45:19.477Z,0.64
2023-04-28T01:47:46.314Z,0.65
2023-04-28T01:50:13.141Z,0.56
2023-04-28T01:52:40.016Z,0.62
2023-04-28T01:55:07.205Z,0.65
2023-04-28T01:57:35.880Z,0.63
2023-04-28T02:00:03.782Z,0.63
2023-04-28T02:02:31.090Z,0.66
2023-04-28T02:04:58.310Z,0.62
2023-04-28T02:07:25.408Z,0.73
2023-04-28T02:09:52.155Z,0.75
2023-04-28T02:12:18.915Z,0.81
2023-04-28T02:14:46.121Z,0.78
2023-04-28T02:17:13.115Z,0.77
2023-04-28T02:19:39.897Z,0.80
2023-04-28T02:22:07.322Z,0.78
2023-04-28T02:24:37.738Z,0.72
2023-04-28T02:27:05.718Z,0.74
2023-04-28T02:29:32.593Z,0.54
2023-04-28T02:31:59.371Z,0.64
2023-04-28T02:34:26.133Z,0.66
2023-04-28T02:36:52.873Z,0.66
2023-04-28T02:39:22.054Z,0.62
2023-04-28T02:41:48.871Z,0.63
2023-04-28T02:44:16.082Z,0.59
2023-04-28T02:46:43.034Z,0.59
2023-04-28T02:49:09.844Z,0.63
2023-04-28T02:51:36.627Z,0.69
2023-04-28T02:54:03.345Z,0.67
2023-04-28T02:56:30.262Z,0.61
2023-04-28T02:58:57.031Z,0.58
2023-04-28T03:01:23.993Z,0.58
2023-04-28T03:03:50.916Z,0.55
2023-04-28T03:06:17.758Z,0.54
2023-04-28T03:08:44.498Z,0.54
2023-04-28T03:11:11.507Z,0.55
2023-04-28T03:13:38.254Z,0.52
2023-04-28T03:16:05.643Z,0.53
2023-04-28T03:18:32.433Z,0.52
2023-04-28T03:20:59.235Z,0.45
2023-04-28T03:23:25.996Z,0.50
2023-04-28T03:25:52.801Z,0.51
2023-04-28T03:28:19.679Z,0.60
2023-04-28T03:30:46.419Z,0.67
2023-04-28T03:33:13.178Z,0.74
2023-04-28T03:35:39.940Z,0.93
2023-04-28T03:38:07.131Z,1.04
2023-04-28T03:40:33.889Z,1.07
2023-04-28T03:43:03.979Z,1.46
2023-04-28T03:45:31.644Z,1.64
2023-04-28T03:47:58.603Z,1.84
2023-04-28T03:50:26.675Z,2.10
2023-04-28T03:52:53.756Z,2.14
2023-04-28T03:55:20.536Z,2.52
2023-04-28T03:57:47.395Z,2.74
2023-04-28T04:00:14.503Z,3.01
2023-04-28T04:02:41.629Z,3.26
2023-04-28T04:05:08.780Z,3.50
2023-04-28T04:07:35.857Z,3.68
2023-04-28T04:10:04.444Z,4.08
2023-04-28T04:12:32.090Z,4.36
2023-04-28T04:14:58.874Z,4.64
2023-04-28T04:17:25.883Z,4.90
2023-04-28T04:19:52.661Z,5.15
2023-04-28T04:22:19.413Z,5.61
2023-04-28T04:24:46.220Z,5.88
2023-04-28T04:27:13.033Z,6.30
2023-04-28T04:29:39.905Z,6.63
2023-04-28T04:32:06.709Z,6.97
2023-04-28T04:34:33.446Z,7.53
2023-04-28T04:37:00.318Z,7.93
2023-04-28T04:39:27.087Z,8.48
2023-04-28T04:41:53.892Z,8.88
2023-04-28T04:44:21.728Z,9.36
2023-04-28T04:46:48.607Z,9.78
2023-04-28T04:49:15.381Z,10.17
2023-04-28T04:51:42.259Z,10.63
2023-04-28T04:54:09.031Z,11.10
2023-04-28T04:56:35.901Z,11.55
2023-04-28T04:59:03.078Z,11.99
2023-04-28T05:01:29.882Z,12.43
2023-04-28T05:03:56.750Z,12.81
2023-04-28T05:06:23.615Z,13.29
2023-04-28T05:08:50.497Z,13.65
2023-04-28T05:11:17.313Z,14.00
2023-04-28T05:13:44.061Z,14.29
2023-04-28T05:16:11.060Z,14.69
2023-04-28T05:18:37.803Z,15.01
2023-04-28T05:21:04.600Z,15.29
2023-04-28T05:23:31.396Z,15.66
2023-04-28T05:25:58.211Z,16.03
2023-04-28T05:28:25.035Z,16.21
2023-04-28T05:30:51.809Z,16.66
2023-04-28T05:33:18.984Z,17.00
2023-04-28T05:35:45.774Z,17.35
2023-04-28T05:38:12.494Z,17.73
2023-04-28T05:40:39.262Z,17.89
2023-04-28T05:43:05.970Z,18.37
2023-04-28T05:45:32.757Z,18.75
2023-04-28T05:47:59.626Z,19.07
2023-04-28T05:50:26.455Z,19.28
2023-04-28T05:52:54.025Z,19.72
2023-04-28T05:55:21.338Z,19.97
2023-04-28T05:57:53.106Z,20.23
2023-04-28T06:00:20.535Z,20.56
2023-04-28T06:02:47.486Z,20.97
2023-04-28T06:05:14.553Z,21.18
2023-04-28T06:07:41.504Z,21.54
2023-04-28T06:10:09.620Z,21.68
2023-04-28T06:12:36.994Z,21.96
2023-04-28T06:15:04.761Z,22.28
2023-04-28T06:17:32.818Z,22.52
2023-04-28T06:19:59.780Z,22.82
2023-04-28T06:22:26.664Z,23.04
2023-04-28T06:24:53.484Z,23.37
2023-04-28T06:27:20.687Z,23.51
2023-04-28T06:29:47.459Z,23.87
2023-04-28T06:32:14.290Z,24.05
2023-04-28T06:34:41.132Z,24.40
2023-04-28T06:37:07.912Z,24.55
2023-04-28T06:39:34.637Z,24.96
2023-04-28T06:42:02.377Z,25.30
2023-04-28T06:44:29.235Z,25.60
2023-04-28T06:46:56.218Z,25.77
2023-04-28T06:49:23.088Z,26.24
2023-04-28T06:51:49.853Z,26.46
2023-04-28T06:54:17.289Z,26.95
2023-04-28T06:56:44.370Z,27.30
2023-04-28T06:59:11.212Z,27.71
2023-04-28T07:01:38.082Z,27.99
2023-04-28T07:04:05.101Z,28.17
2023-04-28T07:06:32.550Z,28.25
2023-04-28T07:08:59.372Z,28.64
2023-04-28T07:11:26.164Z,28.00
2023-04-28T07:13:56.600Z,26.78
2023-04-28T07:16:23.635Z,25.27
2023-04-28T07:18:53.638Z,23.79
2023-04-28T07:21:22.223Z,22.52
2023-04-28T07:23:49.161Z,21.32
2023-04-28T07:26:16.545Z,20.28
2023-04-28T07:28:48.648Z,19.89
2023-04-28T07:31:15.457Z,19.26
2023-04-28T07:33:42.274Z,19.02
2023-04-28T07:36:12.876Z,20.22
2023-04-28T07:38:39.714Z,19.60
2023-04-28T07:41:08.714Z,21.57
2023-04-28T07:43:37.733Z,24.19
2023-04-28T07:46:04.697Z,25.86
2023-04-28T07:48:32.547Z,24.58
2023-04-28T07:50:59.449Z,23.29
2023-04-28T07:53:26.533Z,23.13
2023-04-28T07:55:53.281Z,21.64
2023-04-28T07:58:20.051Z,20.59
2023-04-28T08:00:46.932Z,19.63
2023-04-28T08:03:14.073Z,19.48
2023-04-28T08:05:41.592Z,20.12
2023-04-28T08:08:08.418Z,21.32
2023-04-28T08:10:35.213Z,22.29
2023-04-28T08:13:02.209Z,23.64
2023-04-28T08:15:28.996Z,24.08
2023-04-28T08:17:55.878Z,23.23
2023-04-28T08:20:24.671Z,22.42
2023-04-28T08:22:51.698Z,21.49
2023-04-28T08:25:18.657Z,20.71
2023-04-28T08:27:45.517Z,20.01
2023-04-28T08:30:12.375Z,19.30
2023-04-28T08:32:39.218Z,18.90
2023-04-28T08:35:06.506Z,18.72
2023-04-28T08:37:33.281Z,19.41
2023-04-28T08:40:02.398Z,19.43
2023-04-28T08:42:30.368Z,20.84
2023-04-28T08:45:00.348Z,21.73
2023-04-28T08:47:35.173Z,22.62
2023-04-28T08:50:06.152Z,22.31
2023-04-28T08:52:33.346Z,21.94
2023-04-28T08:55:03.015Z,21.44
2023-04-28T08:57:39.457Z,20.78
2023-04-28T09:00:08.575Z,20.36
2023-04-28T09:02:37.953Z,19.79
2023-04-28T09:05:08.052Z,19.72
2023-04-28T09:07:36.418Z,20.18
2023-04-28T09:10:22.616Z,20.43
2023-04-28T09:12:52.264Z,20.35
2023-04-28T09:15:38.221Z,20.60
2023-04-28T09:18:06.474Z,20.69
2023-04-28T09:20:34.407Z,20.64
2023-04-28T09:23:20.415Z,20.94
2023-04-28T09:26:06.920Z,21.01
2023-04-28T09:28:34.981Z,21.26
2023-04-28T09:31:01.895Z,21.25
2023-04-28T09:33:28.885Z,21.02
2023-04-28T09:35:55.788Z,20.83
2023-04-28T09:38:23.096Z,20.60
2023-04-28T09:41:00.483Z,20.42
2023-04-28T09:43:34.519Z,20.09
2023-04-28T09:46:05.330Z,19.50
2023-04-28T09:48:38.489Z,19.22
2023-04-28T09:51:06.322Z,19.07
2023-04-28T09:53:33.608Z,18.62
2023-04-28T09:56:01.973Z,18.54
2023-04-28T09:58:29.306Z,18.52
2023-04-28T10:01:00.225Z,18.31
2023-04-28T10:03:29.629Z,18.51
2023-04-28T10:05:58.463Z,18.55
2023-04-28T10:08:26.016Z,19.10
2023-04-28T10:10:55.630Z,19.35
2023-04-28T10:13:22.910Z,19.76
2023-04-28T10:15:50.460Z,20.66
2023-04-28T10:18:17.444Z,22.77
2023-04-28T10:20:54.126Z,23.08
2023-04-28T10:23:47.317Z,23.34
2023-04-28T10:26:20.809Z,23.02
2023-04-28T10:28:52.260Z,22.89
2023-04-28T10:31:21.452Z,22.86
2023-04-28T10:33:48.813Z,22.72
2023-04-28T10:36:47.425Z,22.78
2023-04-28T10:39:14.472Z,22.84
2023-04-28T10:41:41.866Z,23.06
2023-04-28T10:44:44.116Z,24.48
2023-04-28T10:47:11.042Z,25.09
2023-04-28T10:49:57.753Z,25.62
2023-04-28T10:52:46.479Z,25.88
2023-04-28T10:55:37.588Z,25.92
2023-04-28T10:58:16.531Z,25.76
2023-04-28T11:00:45.344Z,25.43
2023-04-28T11:03:55.002Z,25.21
2023-04-28T11:06:40.192Z,24.76
2023-04-28T11:09:14.111Z,24.71
2023-04-28T11:11:41.184Z,24.59
2023-04-28T11:14:20.463Z,24.67
2023-04-28T11:16:59.903Z,24.41
2023-04-28T11:19:31.050Z,24.63
2023-04-28T11:21:58.778Z,25.08
2023-04-28T11:24:26.358Z,25.07
2023-04-28T11:26:53.902Z,25.14
2023-04-28T11:29:41.055Z,25.03
2023-04-28T11:32:09.110Z,24.40
2023-04-28T11:34:36.756Z,24.49
2023-04-28T11:37:03.763Z,26.72
2023-04-28T11:39:31.627Z,27.29
2023-04-28T11:41:59.288Z,27.09
2023-04-28T11:44:28.201Z,26.97
2023-04-28T11:46:57.400Z,26.75
2023-04-28T11:49:29.210Z,26.97
2023-04-28T11:52:04.671Z,27.22
2023-04-28T11:54:31.733Z,27.54
2023-04-28T11:56:58.811Z,27.53
2023-04-28T11:59:27.477Z,27.36
2023-04-28T12:01:57.038Z,27.32
2023-04-28T12:04:36.506Z,28.45
2023-04-28T12:07:16.782Z,28.42
2023-04-28T12:09:50.105Z,29.52
2023-04-28T12:12:39.968Z,29.55
2023-04-28T12:15:12.683Z,28.36
2023-04-28T12:17:41.581Z,26.64
2023-04-28T12:20:12.808Z,25.24
2023-04-28T12:22:51.796Z,24.26
2023-04-28T12:25:19.558Z,23.77
2023-04-28T12:28:03.191Z,23.55
2023-04-28T12:30:31.566Z,23.76
2023-04-28T12:32:58.597Z,23.62
2023-04-28T12:35:26.484Z,23.17
2023-04-28T12:37:54.610Z,22.97
2023-04-28T12:40:21.646Z,22.74
2023-04-28T12:42:48.457Z,22.99
2023-04-28T12:45:16.416Z,23.65
2023-04-28T12:47:43.429Z,26.21
2023-04-28T12:50:10.524Z,26.33
2023-04-28T12:52:37.684Z,25.96
2023-04-28T12:55:05.059Z,25.05
2023-04-28T12:57:31.967Z,24.21
2023-04-28T12:59:58.837Z,23.24
2023-04-28T13:02:25.884Z,22.62
2023-04-28T13:04:53.053Z,22.09
2023-04-28T13:07:20.206Z,21.55
2023-04-28T13:09:47.912Z,21.03
2023-04-28T13:12:15.150Z,20.71
2023-04-28T13:14:42.326Z,20.57
2023-04-28T13:17:10.289Z,20.47
2023-04-28T13:19:38.000Z,20.15
2023-04-28T13:22:06.745Z,20.31
2023-04-28T13:24:34.161Z,20.30
2023-04-28T13:27:02.780Z,20.16
2023-04-28T13:29:30.126Z,19.97
2023-04-28T13:31:57.076Z,19.96
2023-04-28T13:34:23.945Z,20.17
2023-04-28T13:36:54.012Z,20.39
2023-04-28T13:39:22.201Z,20.65
2023-04-28T13:41:49.559Z,21.29
2023-04-28T13:44:17.001Z,21.47
2023-04-28T13:46:43.993Z,21.21
2023-04-28T13:49:10.840Z,21.04
2023-04-28T13:51:37.843Z,21.40
2023-04-28T13:54:05.508Z,21.66
2023-04-28T13:56:32.377Z,21.38
2023-04-28T13:58:59.143Z,21.07
2023-04-28T14:01:26.366Z,21.12
2023-04-28T14:03:53.399Z,21.11
2023-04-28T14:06:21.049Z,20.71
2023-04-28T14:08:48.173Z,20.71
2023-04-28T14:11:15.145Z,20.38
2023-04-28T14:13:42.417Z,20.11
2023-04-28T14:16:09.212Z,19.98
2023-04-28T14:18:36.076Z,19.93
2023-04-28T14:21:04.130Z,20.38
2023-04-28T14:23:31.165Z,20.01
2023-04-28T14:26:00.025Z,19.49
2023-04-28T14:28:26.977Z,18.94
2023-04-28T14:30:54.419Z,18.33
2023-04-28T14:33:21.518Z,18.06
2023-04-28T14:35:48.806Z,18.86
2023-04-28T14:38:15.691Z,20.00
2023-04-28T14:40:43.205Z,21.54
2023-04-28T14:43:10.016Z,21.82
2023-04-28T14:45:38.194Z,22.29
2023-04-28T14:48:07.140Z,22.00
2023-04-28T14:50:34.100Z,21.58
2023-04-28T14:53:05.679Z,21.62
2023-04-28T14:55:33.116Z,22.12
2023-04-28T14:57:59.905Z,22.28
2023-04-28T15:00:26.712Z,22.24
2023-04-28T15:02:53.702Z,22.30
2023-04-28T15:05:20.637Z,22.38
2023-04-28T15:07:47.434Z,22.49
2023-04-28T15:10:14.318Z,22.26
2023-04-28T15:12:42.556Z,21.56
2023-04-28T15:15:10.142Z,21.15
2023-04-28T15:17:37.103Z,20.89
2023-04-28T15:20:05.226Z,20.48
2023-04-28T15:22:32.003Z,20.27
2023-04-28T15:24:58.825Z,19.83
2023-04-28T15:27:25.742Z,19.43
2023-04-28T15:29:52.501Z,19.22
2023-04-28T15:32:19.331Z,18.79
2023-04-28T15:34:46.211Z,18.61
2023-04-28T15:37:43.241Z,18.44
2023-04-28T15:40:11.521Z,18.19
2023-04-28T15:42:39.269Z,17.86
2023-04-28T15:45:06.918Z,17.72
2023-04-28T15:47:33.760Z,17.47
2023-04-28T15:50:00.581Z,17.35
2023-04-28T15:52:27.550Z,17.29
2023-04-28T15:54:57.488Z,17.15
2023-04-28T15:57:24.589Z,16.76
2023-04-28T15:59:51.903Z,16.57
2023-04-28T16:02:19.178Z,16.21
2023-04-28T16:04:47.109Z,16.11
2023-04-28T16:07:14.208Z,15.82
2023-04-28T16:09:41.171Z,15.28
2023-04-28T16:12:08.352Z,15.00
2023-04-28T16:14:36.530Z,14.62
2023-04-28T16:17:03.684Z,14.22
2023-04-28T16:19:30.532Z,13.96
2023-04-28T16:21:57.338Z,13.39
2023-04-28T16:24:24.799Z,13.02
2023-04-28T16:26:51.710Z,12.63
2023-04-28T16:29:18.481Z,12.55
2023-04-28T16:31:45.726Z,12.26
2023-04-28T16:34:12.745Z,11.99
2023-04-28T16:36:40.230Z,11.93
2023-04-28T16:39:07.181Z,11.80
2023-04-28T16:41:34.196Z,11.64
2023-04-28T16:44:00.989Z,11.59
2023-04-28T16:46:27.898Z,11.63
2023-04-28T16:48:54.708Z,11.51
2023-04-28T16:51:22.174Z,11.43
2023-04-28T16:53:48.974Z,11.19
2023-04-28T16:56:15.999Z,11.03
2023-04-28T16:58:42.978Z,10.98
2023-04-28T17:01:09.819Z,10.88
2023-04-28T17:03:41.721Z,10.81
2023-04-28T17:06:09.171Z,10.63
2023-04-28T17:08:36.013Z,10.57
2023-04-28T17:11:04.078Z,10.18
2023-04-28T17:13:34.220Z,10.18
2023-04-28T17:16:01.296Z,10.03
2023-04-28T17:18:28.258Z,9.74
2023-04-28T17:20:56.711Z,9.77
2023-04-28T17:23:23.435Z,9.48
2023-04-28T17:25:50.211Z,9.29
2023-04-28T17:28:17.001Z,9.35
2023-04-28T17:30:47.063Z,9.13
2023-04-28T17:33:14.220Z,9.09
2023-04-28T17:35:40.992Z,8.98
2023-04-28T17:38:07.747Z,8.86
2023-04-28T17:40:34.536Z,8.77
2023-04-28T17:43:01.739Z,8.74
2023-04-28T17:45:28.545Z,8.50
2023-04-28T17:47:57.850Z,8.40
2023-04-28T17:50:24.736Z,8.47
2023-04-28T17:52:51.910Z,8.43
2023-04-28T17:55:18.924Z,8.21
2023-04-28T17:57:45.804Z,8.19
2023-04-28T18:00:13.605Z,8.09
2023-04-28T18:02:40.854Z,7.89
2023-04-28T18:05:08.053Z,7.95
2023-04-28T18:07:34.935Z,7.82
2023-04-28T18:10:01.844Z,7.94
2023-04-28T18:12:30.006Z,7.88
2023-04-28T18:14:58.042Z,7.70
2023-04-28T18:17:26.268Z,7.67
2023-04-28T18:19:56.966Z,7.70
2023-04-28T18:22:24.095Z,7.69
2023-04-28T18:24:51.306Z,7.52
2023-04-28T18:27:18.866Z,7.50
2023-04-28T18:29:45.915Z,7.51
2023-04-28T18:32:14.540Z,7.40
2023-04-28T18:34:42.169Z,7.31
2023-04-28T18:37:09.562Z,7.45
2023-04-28T18:39:36.707Z,7.37
2023-04-28T18:42:04.424Z,7.30
2023-04-28T18:44:31.381Z,7.18
2023-04-28T18:46:58.631Z,7.08
2023-04-28T18:49:25.872Z,7.08
2023-04-28T18:51:52.678Z,6.87
2023-04-28T18:54:19.967Z,7.02
2023-04-28T18:56:48.091Z,6.84
2023-04-28T18:59:14.976Z,6.82
2023-04-28T19:01:42.082Z,6.86
2023-04-28T19:04:09.332Z,6.71
2023-04-28T19:06:36.462Z,6.76
2023-04-28T19:09:03.493Z,6.48
2023-04-28T19:11:30.642Z,6.60
2023-04-28T19:13:58.107Z,6.62
2023-04-28T19:16:24.994Z,6.58
2023-04-28T19:18:51.864Z,6.60
2023-04-28T19:21:18.973Z,6.28
2023-04-28T19:23:46.320Z,6.49
2023-04-28T19:26:13.500Z,6.32
2023-04-28T19:28:40.452Z,6.58
2023-04-28T19:31:08.255Z,6.52
2023-04-28T19:33:35.082Z,6.54
2023-04-28T19:36:03.353Z,6.46
2023-04-28T19:38:30.137Z,6.49
2023-04-28T19:41:03.381Z,6.36
2023-04-28T19:43:30.785Z,6.51
2023-04-28T19:45:57.979Z,6.47
2023-04-28T19:48:26.270Z,6.42
2023-04-28T19:50:53.062Z,6.47
2023-04-28T19:53:19.851Z,6.31
2023-04-28T19:55:46.703Z,6.28
2023-04-28T19:58:14.001Z,6.33
2023-04-28T20:00:40.954Z,6.37
2023-04-28T20:03:08.915Z,6.29
2023-04-28T20:05:39.062Z,6.10
2023-04-28T20:08:05.847Z,6.30
2023-04-28T20:10:32.604Z,6.13
2023-04-28T20:12:59.376Z,6.07
2023-04-28T20:15:26.241Z,6.23
2023-04-28T20:17:53.112Z,6.12
2023-04-28T20:20:20.043Z,5.93
2023-04-28T20:22:48.850Z,6.01
2023-04-28T20:25:15.856Z,6.03
2023-04-28T20:27:44.288Z,6.02
2023-04-28T20:30:11.490Z,6.11
2023-04-28T20:32:38.685Z,6.12
2023-04-28T20:35:06.287Z,6.17
2023-04-28T20:37:33.432Z,6.12
2023-04-28T20:40:00.324Z,6.10
2023-04-28T20:42:28.120Z,6.12
2023-04-28T20:44:54.914Z,6.21
2023-04-28T20:47:21.828Z,6.16
2023-04-28T20:49:48.748Z,6.07
2023-04-28T20:52:15.733Z,6.20
2023-04-28T20:54:43.823Z,6.11
2023-04-28T20:57:11.363Z,6.08
2023-04-28T20:59:38.180Z,6.08
2023-04-28T21:02:05.077Z,6.02
2023-04-28T21:04:32.102Z,6.09
2023-04-28T21:06:58.982Z,6.06
2023-04-28T21:09:25.940Z,6.02
2023-04-28T21:11:52.926Z,6.02
2023-04-28T21:14:20.300Z,6.10
2023-04-28T21:16:47.072Z,6.06
2023-04-28T21:19:13.875Z,6.06
2023-04-28T21:21:41.125Z,6.02
2023-04-28T21:24:09.262Z,5.97
2023-04-28T21:26:36.934Z,5.89
2023-04-28T21:29:03.685Z,5.85
2023-04-28T21:31:30.924Z,5.79
2023-04-28T21:33:57.940Z,5.74
2023-04-28T21:36:24.750Z,5.75
2023-04-28T21:38:51.942Z,5.62
2023-04-28T21:41:18.685Z,5.70
2023-04-28T21:43:45.988Z,5.64
2023-04-28T21:46:13.537Z,5.50
2023-04-28T21:48:40.282Z,5.38
2023-04-28T21:51:07.155Z,5.38
2023-04-28T21:53:33.996Z,5.36
2023-04-28T21:56:00.896Z,5.21
2023-04-28T21:58:27.744Z,5.22
2023-04-28T22:00:55.122Z,5.17
2023-04-28T22:03:22.169Z,5.11
2023-04-28T22:05:49.166Z,5.05
2023-04-28T22:08:17.152Z,4.91
2023-04-28T22:10:45.599Z,4.87
2023-04-28T22:13:13.094Z,4.86
2023-04-28T22:15:40.110Z,4.79
2023-04-28T22:18:08.247Z,4.55
2023-04-28T22:20:35.344Z,4.54
2023-04-28T22:23:02.045Z,4.64
2023-04-28T22:25:28.812Z,4.46
2023-04-28T22:27:55.687Z,4.43
2023-04-28T22:30:24.987Z,4.40
2023-04-28T22:32:52.807Z,4.41
2023-04-28T22:35:19.671Z,4.34
2023-04-28T22:37:46.557Z,4.44
2023-04-28T22:40:13.357Z,4.29
2023-04-28T22:42:40.770Z,4.18
2023-04-28T22:45:08.474Z,4.29
2023-04-28T22:47:35.239Z,4.05
2023-04-28T22:50:05.862Z,4.22
2023-04-28T22:52:33.304Z,4.13
2023-04-28T22:55:00.082Z,4.20
2023-04-28T22:57:26.982Z,4.14
2023-04-28T22:59:53.972Z,3.96
2023-04-28T23:02:21.045Z,3.79
2023-04-28T23:04:47.947Z,3.94
2023-04-28T23:07:14.869Z,3.92
2023-04-28T23:09:41.637Z,3.84
2023-04-28T23:12:08.340Z,3.81
2023-04-28T23:14:35.096Z,3.74
2023-04-28T23:17:01.898Z,3.59
2023-04-28T23:19:28.650Z,3.70
2023-04-28T23:21:55.521Z,3.72
2023-04-28T23:24:22.278Z,3.66
2023-04-28T23:26:49.018Z,3.50
2023-04-28T23:29:15.771Z,3.61
2023-04-28T23:31:42.513Z,3.57
2023-04-28T23:34:09.346Z,3.52
2023-04-28T23:36:37.881Z,3.62
2023-04-28T23:39:04.684Z,3.47
2023-04-28T23:41:31.375Z,3.54
2023-04-28T23:43:58.050Z,3.62
2023-04-28T23:46:24.807Z,3.48
2023-04-28T23:48:51.509Z,3.56
2023-04-28T23:51:18.217Z,3.51
2023-04-28T23:53:44.964Z,3.39
2023-04-28T23:56:11.705Z,3.35
2023-04-28T23:58:39.011Z,3.31
